createdAt,value
2022-10-20T00:00:58.530Z,100738.63
2022-10-20T00:03:25.907Z,100740.34
2022-10-20T00:05:52.949Z,100744.16
2022-10-20T00:08:19.683Z,100745.16
2022-10-20T00:10:56.060Z,100736.13
2022-10-20T00:13:23.598Z,100742.53
2022-10-20T00:15:54.129Z,100739.84
2022-10-20T00:18:21.241Z,100745.37
2022-10-20T00:20:47.939Z,100750.62
2022-10-20T00:23:14.875Z,100745.72
2022-10-20T00:25:41.551Z,100744.91
2022-10-20T00:28:08.188Z,100754.28
2022-10-20T00:30:35.229Z,100756.84
2022-10-20T00:33:02.976Z,100758.56
2022-10-20T00:35:30.190Z,100758.56
2022-10-20T00:37:57.203Z,100761.84
2022-10-20T00:40:24.284Z,100755.97
2022-10-20T00:42:50.934Z,100763.69
2022-10-20T00:45:18.914Z,100759.75
2022-10-20T00:47:56.456Z,100762.31
2022-10-20T00:50:26.318Z,100766.88
2022-10-20T00:52:53.477Z,100770.34
2022-10-20T00:55:21.516Z,100769.19
2022-10-20T00:57:49.582Z,100771.53
2022-10-20T01:00:16.613Z,100775.84
2022-10-20T01:02:43.521Z,100777.69
2022-10-20T01:05:10.524Z,100775.75
2022-10-20T01:07:37.519Z,100774.41
2022-10-20T01:10:04.931Z,100769.66
2022-10-20T01:12:47.345Z,100770.25
2022-10-20T01:15:16.889Z,100771.41
2022-10-20T01:17:43.865Z,100765.59
2022-10-20T01:20:10.528Z,100770.16
2022-10-20T01:22:55.913Z,100763.13
2022-10-20T01:25:35.181Z,100767.16
2022-10-20T01:28:03.090Z,100759.37
2022-10-20T01:30:30.565Z,100763.63
2022-10-20T01:33:00.465Z,100765.22
2022-10-20T01:35:27.184Z,100770.31
2022-10-20T01:37:54.345Z,100771.56
2022-10-20T01:40:29.418Z,100774.88
2022-10-20T01:42:57.079Z,100779.19
2022-10-20T01:45:24.349Z,100780.66
2022-10-20T01:47:51.504Z,100780.06
2022-10-20T01:50:18.466Z,100790.69
2022-10-20T01:52:45.146Z,100788.50
2022-10-20T01:55:13.712Z,100780.78
2022-10-20T01:57:40.663Z,100776.66
2022-10-20T02:00:08.290Z,100770.81
2022-10-20T02:02:35.524Z,100783.47
2022-10-20T02:05:02.601Z,100778.19
2022-10-20T02:07:29.736Z,100784.84
2022-10-20T02:10:26.299Z,100785.41
2022-10-20T02:12:54.245Z,100787.06
2022-10-20T02:15:23.688Z,100778.63
2022-10-20T02:17:51.769Z,100780.59
2022-10-20T02:20:18.487Z,100784.72
2022-10-20T02:22:45.452Z,100783.00
2022-10-20T02:25:12.627Z,100794.00
2022-10-20T02:27:39.883Z,100790.63
2022-10-20T02:30:08.109Z,100789.56
2022-10-20T02:32:36.064Z,100787.66
2022-10-20T02:35:06.657Z,100789.91
2022-10-20T02:37:34.232Z,100799.09
2022-10-20T02:40:01.440Z,100794.75
2022-10-20T02:42:28.093Z,100789.69
2022-10-20T02:44:55.794Z,100793.59
2022-10-20T02:47:22.508Z,100790.75
2022-10-20T02:49:49.175Z,100792.75
2022-10-20T02:52:16.180Z,100799.22
2022-10-20T02:54:42.861Z,100799.84
2022-10-20T02:57:09.589Z,100804.41
2022-10-20T02:59:36.533Z,100804.06
2022-10-20T03:02:03.300Z,100802.97
2022-10-20T03:04:30.040Z,100797.75
2022-10-20T03:06:57.202Z,100799.81
2022-10-20T03:09:24.027Z,100804.19
2022-10-20T03:11:50.837Z,100802.31
2022-10-20T03:14:17.791Z,100810.81
2022-10-20T03:16:44.484Z,100807.16
2022-10-20T03:19:11.930Z,100807.56
2022-10-20T03:21:39.070Z,100810.06
2022-10-20T03:24:05.906Z,100818.22
2022-10-20T03:26:32.566Z,100816.41
2022-10-20T03:28:59.486Z,100815.63
2022-10-20T03:31:26.390Z,100813.47
2022-10-20T03:33:53.082Z,100817.84
2022-10-20T03:36:20.023Z,100817.03
2022-10-20T03:38:46.652Z,100814.16
2022-10-20T03:41:13.380Z,100820.41
2022-10-20T03:43:40.317Z,100816.56
2022-10-20T03:46:08.328Z,100824.59
2022-10-20T03:48:35.525Z,100819.44
2022-10-20T03:51:02.811Z,100826.28
2022-10-20T03:53:29.639Z,100823.13
2022-10-20T03:55:56.292Z,100830.59
2022-10-20T03:58:23.394Z,100825.78
2022-10-20T04:00:50.112Z,100825.78
2022-10-20T04:03:17.074Z,100822.09
2022-10-20T04:05:43.706Z,100825.78
2022-10-20T04:08:10.457Z,100822.59
2022-10-20T04:10:37.478Z,100830.88
2022-10-20T04:13:04.402Z,100827.28
2022-10-20T04:15:31.230Z,100827.56
2022-10-20T04:17:58.479Z,100823.25
2022-10-20T04:20:25.264Z,100828.53
2022-10-20T04:22:51.915Z,100825.03
2022-10-20T04:25:18.917Z,100820.13
2022-10-20T04:27:45.637Z,100820.94
2022-10-20T04:30:12.333Z,100817.88
2022-10-20T04:32:39.306Z,100818.88
2022-10-20T04:35:06.147Z,100825.22
2022-10-20T04:37:32.773Z,100822.06
2022-10-20T04:39:59.864Z,100822.34
2022-10-20T04:42:26.533Z,100819.06
2022-10-20T04:48:14.078Z,100815.63
2022-10-20T04:50:40.991Z,100820.56
2022-10-20T04:53:08.062Z,100815.53
2022-10-20T04:55:35.186Z,100822.59
2022-10-20T04:58:02.807Z,100817.75
2022-10-20T05:00:29.662Z,100830.19
2022-10-20T05:02:56.381Z,100828.34
2022-10-20T05:05:23.391Z,100831.16
2022-10-20T05:07:50.019Z,100828.19
2022-10-20T05:10:17.879Z,100838.81
2022-10-20T05:12:44.815Z,100841.06
2022-10-20T05:15:11.514Z,100845.91
2022-10-20T05:17:38.301Z,100851.03
2022-10-20T05:20:05.575Z,100849.66
2022-10-20T06:47:43.197Z,100942.59
2022-10-20T06:50:11.119Z,100942.44
2022-10-20T06:52:38.087Z,100954.22
2022-10-20T06:55:05.266Z,100955.28
2022-10-20T06:57:32.629Z,100952.50
2022-10-20T06:59:59.337Z,100953.69
2022-10-20T07:02:26.117Z,100957.44
2022-10-20T07:04:53.501Z,100952.06
2022-10-20T07:07:20.271Z,100953.41
2022-10-20T07:09:47.176Z,100953.81
2022-10-20T07:12:14.253Z,100962.78
2022-10-20T07:14:41.010Z,100955.44
2022-10-20T07:17:07.909Z,100956.78
2022-10-20T07:19:34.952Z,100962.44
2022-10-20T07:22:01.828Z,100958.34
2022-10-20T07:24:29.631Z,100958.97
2022-10-20T07:27:01.739Z,100960.75
2022-10-20T07:29:36.445Z,100960.19
2022-10-20T07:32:07.275Z,100969.13
2022-10-20T07:34:35.069Z,100968.97
2022-10-20T07:37:01.870Z,100962.72
2022-10-20T07:39:33.314Z,100968.09
2022-10-20T07:42:00.036Z,100968.97
2022-10-20T07:44:26.933Z,100966.00
2022-10-20T07:46:55.331Z,100968.84
2022-10-20T07:52:09.369Z,100970.31
2022-10-20T07:54:36.339Z,100981.53
2022-10-20T07:57:03.105Z,100977.59
2022-10-20T07:59:30.890Z,100970.47
2022-10-20T08:01:59.752Z,100970.69
2022-10-20T08:04:31.781Z,100968.38
2022-10-20T08:07:00.097Z,100970.25
2022-10-20T08:09:26.839Z,100960.75
2022-10-20T08:11:56.037Z,100969.47
2022-10-20T08:14:26.599Z,100978.94
2022-10-20T08:17:02.807Z,100976.31
2022-10-20T08:22:20.174Z,100979.03
2022-10-20T08:24:47.094Z,100975.34
2022-10-20T08:27:14.207Z,100976.53
2022-10-20T08:29:41.267Z,100989.78
2022-10-20T08:32:07.977Z,100983.75
2022-10-20T08:34:34.819Z,100982.63
2022-10-20T08:37:01.842Z,100977.56
2022-10-20T08:39:28.531Z,100981.19
2022-10-20T08:42:07.391Z,100975.13
2022-10-20T08:44:35.404Z,100977.66
2022-10-20T08:47:02.434Z,100975.94
2022-10-20T08:49:29.865Z,100976.91
2022-10-20T08:51:56.870Z,100990.00
2022-10-20T08:54:23.779Z,100984.69
2022-10-20T08:56:51.147Z,100983.03
2022-10-20T08:59:23.513Z,100988.97
2022-10-20T09:01:50.370Z,100985.47
2022-10-20T09:04:19.097Z,100984.50
2022-10-20T09:06:47.466Z,100982.78
2022-10-20T09:12:40.557Z,100982.00
2022-10-20T09:15:09.425Z,100984.50
2022-10-20T09:17:36.255Z,100976.63
2022-10-20T09:20:03.888Z,100979.41
2022-10-20T09:22:35.553Z,100975.94
2022-10-20T09:25:02.719Z,100976.06
2022-10-20T09:27:29.412Z,100976.84
2022-10-20T09:29:56.345Z,100975.19
2022-10-20T09:32:45.963Z,100976.97
2022-10-20T09:35:24.971Z,100977.72
2022-10-20T09:37:57.286Z,100979.50
2022-10-20T09:40:26.170Z,100980.31
2022-10-20T09:42:54.162Z,100976.91
2022-10-20T09:45:28.492Z,100980.34
2022-10-20T09:47:56.754Z,100979.47
2022-10-20T09:50:25.622Z,100975.16
2022-10-20T09:52:52.293Z,100978.72
2022-10-20T09:55:22.714Z,100982.97
2022-10-20T09:57:49.398Z,100983.00
2022-10-20T10:00:36.473Z,100970.81
2022-10-20T10:03:21.520Z,100977.75
2022-10-20T10:05:54.971Z,100979.47
2022-10-20T10:08:22.505Z,100981.28
2022-10-20T10:11:05.749Z,100984.78
2022-10-20T10:13:37.806Z,100975.19
2022-10-20T10:16:05.696Z,100984.75
2022-10-20T10:18:32.770Z,100986.56
2022-10-20T10:21:00.835Z,100977.81
2022-10-20T10:23:28.448Z,100965.53
2022-10-20T10:25:59.165Z,100963.81
2022-10-20T10:28:30.845Z,100961.19
2022-10-20T10:31:24.106Z,100967.31
2022-10-20T10:33:52.626Z,100955.06
2022-10-20T10:36:36.011Z,100954.19
2022-10-20T10:39:03.179Z,100955.87
2022-10-20T10:41:41.671Z,100951.53
2022-10-20T10:44:11.645Z,100949.78
2022-10-20T10:46:57.674Z,100951.53
2022-10-20T10:49:39.969Z,100938.44
2022-10-20T10:52:17.121Z,100935.84
2022-10-20T10:54:44.158Z,100931.44
2022-10-20T10:57:31.647Z,100935.78
2022-10-20T11:00:00.584Z,100926.19
2022-10-20T11:02:34.716Z,100921.78
2022-10-20T11:05:04.865Z,100920.09
2022-10-20T11:07:34.878Z,100912.19
2022-10-20T11:10:08.382Z,100907.84
2022-10-20T11:12:42.616Z,100900.88
2022-10-20T11:15:24.814Z,100904.38
2022-10-20T11:18:04.467Z,100906.09
2022-10-20T11:20:46.498Z,100900.88
2022-10-20T11:26:12.459Z,100897.34
2022-10-20T11:28:46.621Z,100895.56
2022-10-20T11:31:21.513Z,100882.50
2022-10-20T11:33:51.992Z,100879.75
2022-10-20T11:36:19.123Z,100870.06
2022-10-20T11:38:50.091Z,100872.81
2022-10-20T11:41:23.783Z,100869.34
2022-10-20T11:43:51.028Z,100869.25
2022-10-20T11:46:20.112Z,100866.56
2022-10-20T11:48:49.857Z,100863.25
2022-10-20T11:51:20.067Z,100865.88
2022-10-20T11:53:53.271Z,100856.25
2022-10-20T11:56:26.332Z,100855.41
2022-10-20T11:59:02.629Z,100857.97
2022-10-20T12:01:35.838Z,100852.75
2022-10-20T12:04:02.914Z,100849.94
2022-10-20T12:06:33.061Z,100847.34
2022-10-20T12:09:15.029Z,100848.38
2022-10-20T12:11:46.391Z,100857.16
2022-10-20T12:14:19.156Z,100851.03
2022-10-20T12:16:52.456Z,100844.03
2022-10-20T12:19:22.942Z,100843.91
2022-10-20T12:21:58.063Z,100836.91
2022-10-20T12:24:43.526Z,100843.03
2022-10-20T12:27:12.735Z,100837.03
2022-10-20T12:29:41.286Z,100833.53
2022-10-20T12:32:26.346Z,100834.38
2022-10-20T12:35:00.899Z,100827.41
2022-10-20T12:37:31.206Z,100830.91
2022-10-20T12:40:18.223Z,100820.41
2022-10-20T12:42:51.412Z,100823.03
2022-10-20T12:45:23.519Z,100811.69
2022-10-20T12:47:59.222Z,100815.19
2022-10-20T12:50:42.490Z,100809.06
2022-10-20T12:53:29.405Z,100802.84
2022-10-20T12:56:11.307Z,100804.59
2022-10-20T12:58:38.635Z,100800.91
2022-10-20T13:01:08.152Z,100790.69
2022-10-20T13:03:36.276Z,100803.84
2022-10-20T13:06:24.043Z,100796.84
2022-10-20T13:09:08.207Z,100792.44
2022-10-20T13:11:47.759Z,100792.47
2022-10-20T13:14:27.101Z,100795.09
2022-10-20T13:17:01.950Z,100792.44
2022-10-20T13:20:01.704Z,100789.84
2022-10-20T13:22:39.898Z,100783.72
2022-10-20T13:25:12.080Z,100790.69
2022-10-20T13:27:39.049Z,100795.09
2022-10-20T13:30:07.122Z,100788.94
2022-10-20T13:32:43.461Z,100780.16
2022-10-20T13:35:31.265Z,100778.31
2022-10-20T13:38:06.618Z,100780.91
2022-10-20T13:40:50.882Z,100774.84
2022-10-20T13:43:17.581Z,100776.50
2022-10-20T13:45:47.616Z,100779.34
2022-10-20T13:48:20.092Z,100783.69
2022-10-20T13:50:53.723Z,100777.56
2022-10-20T13:53:25.929Z,100781.94
2022-10-20T13:55:52.875Z,100776.72
2022-10-20T13:58:22.860Z,100774.94
2022-10-20T14:00:56.597Z,100767.09
2022-10-20T14:03:23.541Z,100770.62
2022-10-20T14:05:50.223Z,100768.00
2022-10-20T14:08:21.209Z,100768.00
2022-10-20T14:11:04.594Z,100758.41
2022-10-20T14:13:31.736Z,100758.38
2022-10-20T14:15:59.333Z,100757.50
2022-10-20T14:18:27.377Z,100751.38
2022-10-20T14:20:55.100Z,100753.97
2022-10-20T14:23:22.675Z,100751.41
2022-10-20T14:25:50.154Z,100752.25
2022-10-20T14:28:18.571Z,100754.91
2022-10-20T14:30:47.211Z,100754.91
2022-10-20T14:33:17.170Z,100753.97
2022-10-20T14:35:44.306Z,100747.88
2022-10-20T14:38:40.678Z,100754.81
2022-10-20T14:41:07.409Z,100751.38
2022-10-20T14:43:43.802Z,100748.78
2022-10-20T14:46:11.726Z,100749.63
2022-10-20T14:48:41.611Z,100748.75
2022-10-20T14:51:27.601Z,100753.97
2022-10-20T14:54:13.536Z,100743.50
2022-10-20T14:56:44.489Z,100738.25
2022-10-20T14:59:15.077Z,100740.88
2022-10-20T15:01:51.644Z,100741.75
2022-10-20T15:04:27.123Z,100741.78
2022-10-20T15:07:03.099Z,100734.78
2022-10-20T15:09:42.442Z,100738.25
2022-10-20T15:12:16.739Z,100729.56
2022-10-20T15:14:44.573Z,100736.53
2022-10-20T15:17:50.162Z,100729.56
2022-10-20T15:20:30.932Z,100738.31
2022-10-20T15:22:58.722Z,100726.97
2022-10-20T15:25:28.037Z,100726.94
2022-10-20T15:27:57.990Z,100720.88
2022-10-20T15:30:25.420Z,100726.09
2022-10-20T15:32:52.452Z,100731.34
2022-10-20T15:35:20.267Z,100722.59
2022-10-20T15:37:51.676Z,100721.72
2022-10-20T15:40:18.781Z,100722.53
2022-10-20T15:42:45.522Z,100726.03
2022-10-20T15:45:19.295Z,100725.13
2022-10-20T15:47:46.226Z,100727.75
2022-10-20T15:50:13.631Z,100713.75
2022-10-20T15:52:40.337Z,100718.97
2022-10-20T15:55:22.392Z,100723.31
2022-10-20T15:57:52.972Z,100724.94
2022-10-20T16:00:21.490Z,100724.78
2022-10-20T16:02:49.392Z,100730.91
2022-10-20T16:05:17.724Z,100727.31
2022-10-20T16:07:44.457Z,100730.75
2022-10-20T16:10:11.754Z,100725.53
2022-10-20T16:12:39.076Z,100727.97
2022-10-20T16:15:06.195Z,100731.41
2022-10-20T16:17:33.287Z,100726.09
2022-10-20T16:19:59.955Z,100733.13
2022-10-20T16:22:26.602Z,100727.81
2022-10-20T16:24:53.607Z,100731.34
2022-10-20T16:27:20.588Z,100733.78
2022-10-20T16:29:49.727Z,100729.22
2022-10-20T16:32:16.879Z,100730.09
2022-10-20T16:34:43.837Z,100731.78
2022-10-20T16:37:10.885Z,100731.53
2022-10-20T16:39:37.970Z,100732.19
2022-10-20T16:42:04.718Z,100736.47
2022-10-20T16:44:32.323Z,100738.25
2022-10-20T16:46:59.720Z,100739.78
2022-10-20T16:49:26.980Z,100743.22
2022-10-20T16:51:54.276Z,100746.47
2022-10-20T16:54:21.382Z,100748.19
2022-10-20T16:56:49.029Z,100746.22
2022-10-20T16:59:15.882Z,100742.84
2022-10-20T17:01:43.475Z,100733.84
2022-10-20T17:04:11.229Z,100734.53
2022-10-20T17:06:39.484Z,100747.34
2022-10-20T17:09:07.470Z,100743.78
2022-10-20T17:11:34.785Z,100740.59
2022-10-20T17:14:02.296Z,100740.31
2022-10-20T17:16:31.593Z,100741.03
2022-10-20T17:18:59.393Z,100739.50
2022-10-20T17:21:26.613Z,100742.00
2022-10-20T17:23:53.919Z,100734.94
2022-10-20T17:26:22.266Z,100736.09
2022-10-20T17:28:49.210Z,100743.78
2022-10-20T17:33:51.592Z,100739.25
2022-10-20T17:36:20.267Z,100744.34
2022-10-20T17:38:48.470Z,100740.03
2022-10-20T17:41:15.975Z,100740.53
2022-10-20T17:43:48.823Z,100745.84
2022-10-20T17:46:16.510Z,100749.56
2022-10-20T17:48:44.060Z,100749.91
2022-10-20T17:51:15.378Z,100750.00
2022-10-20T17:53:44.234Z,100754.44
2022-10-20T17:56:21.682Z,100756.44
2022-10-20T17:58:49.289Z,100755.63
2022-10-20T18:01:24.057Z,100751.28
2022-10-20T18:04:00.466Z,100752.16
2022-10-20T18:06:34.034Z,100753.47
2022-10-20T18:09:18.454Z,100751.06
2022-10-20T18:11:48.131Z,100746.97
2022-10-20T18:14:15.512Z,100750.50
2022-10-20T18:16:43.447Z,100745.03
2022-10-20T18:19:13.225Z,100747.06
2022-10-20T18:21:40.406Z,100739.84
2022-10-20T18:24:08.013Z,100740.91
2022-10-20T18:26:35.756Z,100743.59
2022-10-20T18:29:03.035Z,100738.66
2022-10-20T18:31:31.102Z,100747.81
2022-10-20T18:34:02.619Z,100747.81
2022-10-20T18:36:34.190Z,100746.16
2022-10-20T18:39:01.902Z,100746.31
2022-10-20T18:41:30.049Z,100745.87
2022-10-20T18:43:58.648Z,100738.81
2022-10-20T18:46:26.748Z,100747.22
2022-10-20T18:48:53.927Z,100745.00
2022-10-20T18:51:21.236Z,100750.78
2022-10-20T18:53:52.084Z,100754.06
2022-10-20T18:56:19.885Z,100750.34
2022-10-20T18:58:51.683Z,100744.59
2022-10-20T19:01:19.897Z,100744.22
2022-10-20T19:03:48.267Z,100737.91
2022-10-20T19:06:16.706Z,100747.12
2022-10-20T19:08:44.166Z,100750.09
2022-10-20T19:11:12.111Z,100747.59
2022-10-20T19:13:39.376Z,100746.69
2022-10-20T19:16:11.089Z,100747.34
2022-10-20T19:18:40.950Z,100744.38
2022-10-20T19:21:08.610Z,100749.88
2022-10-20T19:23:37.751Z,100751.59
2022-10-20T19:26:06.119Z,100747.56
2022-10-20T19:28:34.736Z,100750.91
2022-10-20T19:31:03.243Z,100749.19
2022-10-20T19:34:13.971Z,100747.75
2022-10-20T19:36:41.527Z,100739.53
2022-10-20T19:39:10.244Z,100738.97
2022-10-20T19:41:38.658Z,100742.56
2022-10-20T19:44:05.548Z,100744.16
2022-10-20T19:46:33.292Z,100747.03
2022-10-20T19:49:00.438Z,100750.34
2022-10-20T19:51:27.704Z,100755.44
2022-10-20T19:53:55.376Z,100756.91
2022-10-20T19:56:22.581Z,100753.53
2022-10-20T19:58:49.329Z,100755.03
2022-10-20T20:01:16.973Z,100761.31
2022-10-20T20:03:44.619Z,100749.97
2022-10-20T20:06:16.831Z,100750.84
2022-10-20T20:08:45.381Z,100750.69
2022-10-20T20:11:21.399Z,100754.97
2022-10-20T20:13:48.856Z,100747.09
2022-10-20T20:16:16.457Z,100754.53
2022-10-20T20:18:45.051Z,100753.62
2022-10-20T20:21:12.964Z,100751.91
2022-10-20T20:23:58.303Z,100758.50
2022-10-20T20:26:27.475Z,100750.56
2022-10-20T20:28:54.749Z,100753.75
2022-10-20T20:31:21.999Z,100753.84
2022-10-20T20:33:50.415Z,100758.53
2022-10-20T20:36:17.703Z,100759.56
2022-10-20T20:38:47.914Z,100755.75
2022-10-20T20:41:17.028Z,100756.44
2022-10-20T20:43:47.531Z,100755.31
2022-10-20T20:46:15.264Z,100764.28
2022-10-20T20:48:42.392Z,100756.31
2022-10-20T20:51:09.075Z,100756.72
2022-10-20T20:53:35.996Z,100754.25
2022-10-20T20:56:05.691Z,100757.69
2022-10-20T20:58:33.050Z,100757.69
2022-10-20T21:01:07.905Z,100752.28
2022-10-20T21:03:40.277Z,100756.72
2022-10-20T21:06:08.298Z,100755.59
2022-10-20T21:08:35.694Z,100754.78
2022-10-20T21:11:06.997Z,100745.69
2022-10-20T21:13:34.753Z,100752.03
2022-10-20T21:16:11.091Z,100747.38
2022-10-20T21:18:38.796Z,100754.59
2022-10-20T21:21:06.541Z,100750.50
2022-10-20T21:23:33.258Z,100747.91
2022-10-20T21:26:00.260Z,100758.03
2022-10-20T21:28:26.922Z,100749.50
2022-10-20T21:30:55.208Z,100753.16
2022-10-20T21:33:24.418Z,100755.37
2022-10-20T21:35:51.162Z,100753.28
2022-10-20T21:38:17.892Z,100760.25
2022-10-20T21:40:44.821Z,100758.38
2022-10-20T21:43:13.246Z,100755.94
2022-10-20T21:45:39.917Z,100758.69
2022-10-20T21:48:07.144Z,100749.41
2022-10-20T21:50:35.101Z,100745.66
2022-10-20T21:53:01.960Z,100744.03
2022-10-20T21:55:28.905Z,100746.06
2022-10-20T21:57:55.580Z,100748.47
2022-10-20T22:00:23.951Z,100747.25
2022-10-20T22:02:51.151Z,100742.63
2022-10-20T22:05:17.926Z,100743.19
2022-10-20T22:07:44.583Z,100737.94
2022-10-20T22:10:11.536Z,100747.16
2022-10-20T22:12:38.186Z,100750.62
2022-10-20T22:15:05.007Z,100743.25
2022-10-20T22:17:31.976Z,100735.19
2022-10-20T22:19:58.614Z,100740.59
2022-10-20T22:22:25.236Z,100742.97
2022-10-20T22:24:52.159Z,100740.19
2022-10-20T22:27:31.337Z,100743.09
2022-10-20T22:30:06.706Z,100743.81
2022-10-20T22:32:33.493Z,100744.91
2022-10-20T22:35:00.233Z,100745.16
2022-10-20T22:37:27.143Z,100745.47
2022-10-20T22:39:53.772Z,100745.06
2022-10-20T22:42:22.613Z,100743.28
2022-10-20T22:44:51.786Z,100743.09
2022-10-20T22:47:18.432Z,100750.16
2022-10-20T22:49:45.204Z,100743.69
2022-10-20T22:52:14.506Z,100744.97
2022-10-20T22:54:41.223Z,100749.34
2022-10-20T22:57:07.878Z,100752.81
2022-10-20T22:59:34.952Z,100743.72
2022-10-20T23:02:01.692Z,100739.50
2022-10-20T23:04:28.404Z,100736.50
2022-10-20T23:06:57.770Z,100737.81
2022-10-20T23:09:24.459Z,100734.44
2022-10-20T23:11:51.103Z,100731.66
2022-10-20T23:14:19.185Z,100714.75
2022-10-20T23:16:45.846Z,100711.19
2022-10-20T23:19:12.707Z,100715.69
2022-10-20T23:21:39.674Z,100717.31
2022-10-20T23:24:06.471Z,100721.84
2022-10-20T23:26:33.123Z,100723.78
2022-10-20T23:29:00.041Z,100734.72
2022-10-20T23:31:26.680Z,100729.38
2022-10-20T23:33:56.184Z,100725.94
2022-10-20T23:36:23.424Z,100724.09
2022-10-20T23:38:50.216Z,100728.53
2022-10-20T23:41:16.835Z,100730.91
2022-10-20T23:43:43.784Z,100725.22
2022-10-20T23:46:12.177Z,100726.34
2022-10-20T23:48:38.834Z,100723.12
2022-10-20T23:51:06.312Z,100725.22
2022-10-20T23:53:33.080Z,100725.41
2022-10-20T23:55:59.722Z,100719.72
2022-10-20T23:58:26.701Z,100721.19
